sensor_id;sensor_type;location;lat;lon;timestamp;P1;durP1;ratioP1;P2;durP2;ratioP2
14256;SDS011;7212;53.254;6.456;2022-09-27T00:00:20;1.98;;;0.80;;
14256;SDS011;7212;53.254;6.456;2022-09-27T00:02:46;1.55;;;0.80;;
14256;SDS011;7212;53.254;6.456;2022-09-27T00:05:13;2.55;;;1.17;;
14256;SDS011;7212;53.254;6.456;2022-09-27T00:07:39;2.50;;;0.80;;
14256;SDS011;7212;53.254;6.456;2022-09-27T00:10:05;1.05;;;0.70;;
14256;SDS011;7212;53.254;6.456;2022-09-27T00:12:32;2.58;;;0.98;;
14256;SDS011;7212;53.254;6.456;2022-09-27T00:14:58;1.33;;;0.80;;
14256;SDS011;7212;53.254;6.456;2022-09-27T00:17:25;2.67;;;0.90;;
14256;SDS011;7212;53.254;6.456;2022-09-27T00:19:51;2.38;;;0.85;;
14256;SDS011;7212;53.254;6.456;2022-09-27T00:22:17;1.38;;;0.95;;
14256;SDS011;7212;53.254;6.456;2022-09-27T00:24:42;1.67;;;0.77;;
14256;SDS011;7212;53.254;6.456;2022-09-27T00:27:08;2.35;;;0.93;;
14256;SDS011;7212;53.254;6.456;2022-09-27T00:29:33;1.58;;;0.90;;
14256;SDS011;7212;53.254;6.456;2022-09-27T00:31:59;1.35;;;0.90;;
14256;SDS011;7212;53.254;6.456;2022-09-27T00:34:25;2.38;;;0.80;;
14256;SDS011;7212;53.254;6.456;2022-09-27T00:36:51;1.27;;;0.80;;
14256;SDS011;7212;53.254;6.456;2022-09-27T00:39:17;1.52;;;0.90;;
14256;SDS011;7212;53.254;6.456;2022-09-27T00:41:43;1.30;;;0.70;;
14256;SDS011;7212;53.254;6.456;2022-09-27T00:47:03;1.48;;;1.00;;
14256;SDS011;7212;53.254;6.456;2022-09-27T00:49:49;2.05;;;1.00;;
14256;SDS011;7212;53.254;6.456;2022-09-27T00:52:18;1.00;;;0.80;;
14256;SDS011;7212;53.254;6.456;2022-09-27T00:54:49;1.63;;;0.80;;
14256;SDS011;7212;53.254;6.456;2022-09-27T00:57:25;2.25;;;0.77;;
14256;SDS011;7212;53.254;6.456;2022-09-27T00:59:52;0.80;;;0.70;;
14256;SDS011;7212;53.254;6.456;2022-09-27T01:02:25;1.50;;;0.70;;
14256;SDS011;7212;53.254;6.456;2022-09-27T01:04:51;1.48;;;0.70;;
14256;SDS011;7212;53.254;6.456;2022-09-27T01:07:19;2.28;;;0.77;;
14256;SDS011;7212;53.254;6.456;2022-09-27T01:09:45;0.93;;;0.73;;
14256;SDS011;7212;53.254;6.456;2022-09-27T01:23:49;1.25;;;0.82;;
14256;SDS011;7212;53.254;6.456;2022-09-27T01:26:31;1.13;;;0.80;;
14256;SDS011;7212;53.254;6.456;2022-09-27T01:29:25;1.02;;;0.80;;
14256;SDS011;7212;53.254;6.456;2022-09-27T01:32:06;0.98;;;0.70;;
14256;SDS011;7212;53.254;6.456;2022-09-27T01:34:46;1.75;;;0.70;;
14256;SDS011;7212;53.254;6.456;2022-09-27T01:37:50;1.13;;;0.80;;
14256;SDS011;7212;53.254;6.456;2022-09-27T01:40:30;1.60;;;0.80;;
14256;SDS011;7212;53.254;6.456;2022-09-27T01:42:58;2.13;;;0.90;;
14256;SDS011;7212;53.254;6.456;2022-09-27T01:48:18;1.33;;;0.68;;
14256;SDS011;7212;53.254;6.456;2022-09-27T01:50:51;1.88;;;0.80;;
14256;SDS011;7212;53.254;6.456;2022-09-27T01:53:37;1.83;;;0.90;;
14256;SDS011;7212;53.254;6.456;2022-09-27T01:56:06;0.68;;;0.65;;
14256;SDS011;7212;53.254;6.456;2022-09-27T01:58:47;2.47;;;0.85;;
14256;SDS011;7212;53.254;6.456;2022-09-27T02:01:17;1.38;;;0.75;;
14256;SDS011;7212;53.254;6.456;2022-09-27T02:03:46;2.45;;;0.80;;
14256;SDS011;7212;53.254;6.456;2022-09-27T02:06:17;1.10;;;0.63;;
14256;SDS011;7212;53.254;6.456;2022-09-27T02:08:48;1.38;;;0.80;;
14256;SDS011;7212;53.254;6.456;2022-09-27T02:11:24;1.70;;;0.77;;
14256;SDS011;7212;53.254;6.456;2022-09-27T02:13:59;1.40;;;0.80;;
14256;SDS011;7212;53.254;6.456;2022-09-27T02:16:49;1.30;;;0.70;;
14256;SDS011;7212;53.254;6.456;2022-09-27T02:22:08;1.35;;;0.70;;
14256;SDS011;7212;53.254;6.456;2022-09-27T02:30:10;1.30;;;0.70;;
14256;SDS011;7212;53.254;6.456;2022-09-27T02:32:37;1.38;;;0.80;;
14256;SDS011;7212;53.254;6.456;2022-09-27T02:37:43;1.00;;;0.52;;
14256;SDS011;7212;53.254;6.456;2022-09-27T02:40:10;1.38;;;0.70;;
14256;SDS011;7212;53.254;6.456;2022-09-27T02:42:37;0.90;;;0.60;;
14256;SDS011;7212;53.254;6.456;2022-09-27T02:45:04;0.90;;;0.60;;
14256;SDS011;7212;53.254;6.456;2022-09-27T02:52:41;1.05;;;0.75;;
14256;SDS011;7212;53.254;6.456;2022-09-27T02:56:22;1.40;;;0.77;;
14256;SDS011;7212;53.254;6.456;2022-09-27T03:01:11;1.05;;;0.75;;
14256;SDS011;7212;53.254;6.456;2022-09-27T03:03:58;1.08;;;0.80;;
14256;SDS011;7212;53.254;6.456;2022-09-27T03:06:42;1.35;;;0.80;;
14256;SDS011;7212;53.254;6.456;2022-09-27T03:09:17;1.92;;;0.90;;
14256;SDS011;7212;53.254;6.456;2022-09-27T03:11:47;2.08;;;1.00;;
14256;SDS011;7212;53.254;6.456;2022-09-27T03:14:13;1.30;;;0.80;;
14256;SDS011;7212;53.254;6.456;2022-09-27T03:16:39;2.55;;;1.02;;
14256;SDS011;7212;53.254;6.456;2022-09-27T03:19:05;1.70;;;0.90;;
14256;SDS011;7212;53.254;6.456;2022-09-27T03:21:31;2.22;;;1.08;;
14256;SDS011;7212;53.254;6.456;2022-09-27T03:23:57;1.13;;;0.77;;
14256;SDS011;7212;53.254;6.456;2022-09-27T03:26:22;1.00;;;0.73;;
14256;SDS011;7212;53.254;6.456;2022-09-27T03:28:48;1.23;;;0.80;;
14256;SDS011;7212;53.254;6.456;2022-09-27T03:31:13;2.55;;;1.02;;
14256;SDS011;7212;53.254;6.456;2022-09-27T03:33:39;1.08;;;0.73;;
14256;SDS011;7212;53.254;6.456;2022-09-27T03:36:05;2.28;;;0.85;;
14256;SDS011;7212;53.254;6.456;2022-09-27T03:38:32;2.15;;;0.77;;
14256;SDS011;7212;53.254;6.456;2022-09-27T03:40:57;2.28;;;0.90;;
14256;SDS011;7212;53.254;6.456;2022-09-27T03:43:23;1.50;;;0.70;;
14256;SDS011;7212;53.254;6.456;2022-09-27T03:45:49;3.22;;;1.00;;
14256;SDS011;7212;53.254;6.456;2022-09-27T03:48:15;1.63;;;0.93;;
14256;SDS011;7212;53.254;6.456;2022-09-27T03:50:40;2.50;;;0.90;;
14256;SDS011;7212;53.254;6.456;2022-09-27T03:53:06;2.47;;;0.80;;
14256;SDS011;7212;53.254;6.456;2022-09-27T03:55:32;2.25;;;0.90;;
14256;SDS011;7212;53.254;6.456;2022-09-27T03:57:58;1.95;;;0.85;;
14256;SDS011;7212;53.254;6.456;2022-09-27T04:00:24;1.67;;;0.88;;
14256;SDS011;7212;53.254;6.456;2022-09-27T04:02:50;2.33;;;0.90;;
14256;SDS011;7212;53.254;6.456;2022-09-27T04:05:15;2.05;;;0.80;;
14256;SDS011;7212;53.254;6.456;2022-09-27T04:07:45;1.55;;;0.90;;
14256;SDS011;7212;53.254;6.456;2022-09-27T04:10:12;1.80;;;0.98;;
14256;SDS011;7212;53.254;6.456;2022-09-27T04:12:40;2.05;;;0.85;;
14256;SDS011;7212;53.254;6.456;2022-09-27T04:15:06;1.90;;;0.90;;
14256;SDS011;7212;53.254;6.456;2022-09-27T04:17:33;2.25;;;0.75;;
14256;SDS011;7212;53.254;6.456;2022-09-27T04:19:59;2.70;;;1.00;;
14256;SDS011;7212;53.254;6.456;2022-09-27T04:22:28;2.05;;;1.10;;
14256;SDS011;7212;53.254;6.456;2022-09-27T04:24:54;1.73;;;0.90;;
14256;SDS011;7212;53.254;6.456;2022-09-27T04:27:19;2.75;;;1.00;;
14256;SDS011;7212;53.254;6.456;2022-09-27T04:29:48;3.03;;;1.00;;
14256;SDS011;7212;53.254;6.456;2022-09-27T04:32:14;3.20;;;1.05;;
14256;SDS011;7212;53.254;6.456;2022-09-27T04:34:39;1.95;;;0.90;;
14256;SDS011;7212;53.254;6.456;2022-09-27T04:37:24;1.67;;;1.10;;
14256;SDS011;7212;53.254;6.456;2022-09-27T04:39:51;0.98;;;0.70;;
14256;SDS011;7212;53.254;6.456;2022-09-27T04:42:16;2.13;;;0.82;;
14256;SDS011;7212;53.254;6.456;2022-09-27T04:44:42;1.85;;;0.80;;
14256;SDS011;7212;53.254;6.456;2022-09-27T04:47:08;2.70;;;1.00;;
14256;SDS011;7212;53.254;6.456;2022-09-27T04:49:34;1.83;;;0.90;;
14256;SDS011;7212;53.254;6.456;2022-09-27T04:52:00;2.28;;;0.90;;
14256;SDS011;7212;53.254;6.456;2022-09-27T04:54:26;2.58;;;1.30;;
14256;SDS011;7212;53.254;6.456;2022-09-27T04:56:51;3.00;;;1.17;;
14256;SDS011;7212;53.254;6.456;2022-09-27T04:59:17;2.17;;;0.88;;
14256;SDS011;7212;53.254;6.456;2022-09-27T05:01:43;2.25;;;1.08;;
14256;SDS011;7212;53.254;6.456;2022-09-27T05:04:09;1.85;;;1.00;;
14256;SDS011;7212;53.254;6.456;2022-09-27T05:06:34;1.27;;;0.90;;
14256;SDS011;7212;53.254;6.456;2022-09-27T05:09:00;2.92;;;0.88;;
14256;SDS011;7212;53.254;6.456;2022-09-27T05:11:27;1.02;;;0.80;;
14256;SDS011;7212;53.254;6.456;2022-09-27T05:13:53;2.47;;;0.95;;
14256;SDS011;7212;53.254;6.456;2022-09-27T05:16:18;2.15;;;0.90;;
14256;SDS011;7212;53.254;6.456;2022-09-27T05:18:44;2.53;;;0.93;;
14256;SDS011;7212;53.254;6.456;2022-09-27T05:21:10;1.77;;;0.80;;
14256;SDS011;7212;53.254;6.456;2022-09-27T05:23:35;1.55;;;0.95;;
14256;SDS011;7212;53.254;6.456;2022-09-27T05:26:04;1.35;;;0.70;;
14256;SDS011;7212;53.254;6.456;2022-09-27T05:28:30;1.55;;;0.75;;
14256;SDS011;7212;53.254;6.456;2022-09-27T05:30:56;1.30;;;0.70;;
14256;SDS011;7212;53.254;6.456;2022-09-27T05:33:22;2.28;;;0.70;;
14256;SDS011;7212;53.254;6.456;2022-09-27T05:35:52;0.95;;;0.75;;
14256;SDS011;7212;53.254;6.456;2022-09-27T05:38:18;2.05;;;0.90;;
14256;SDS011;7212;53.254;6.456;2022-09-27T05:40:44;1.98;;;1.00;;
14256;SDS011;7212;53.254;6.456;2022-09-27T05:43:11;1.73;;;0.80;;
14256;SDS011;7212;53.254;6.456;2022-09-27T05:45:37;0.80;;;0.80;;
14256;SDS011;7212;53.254;6.456;2022-09-27T05:48:03;2.13;;;0.90;;
14256;SDS011;7212;53.254;6.456;2022-09-27T05:50:29;2.13;;;0.95;;
14256;SDS011;7212;53.254;6.456;2022-09-27T05:52:54;1.23;;;0.90;;
14256;SDS011;7212;53.254;6.456;2022-09-27T05:55:20;0.80;;;0.80;;
14256;SDS011;7212;53.254;6.456;2022-09-27T05:57:53;0.95;;;0.85;;
14256;SDS011;7212;53.254;6.456;2022-09-27T06:00:20;2.13;;;0.88;;
14256;SDS011;7212;53.254;6.456;2022-09-27T06:02:51;1.38;;;0.90;;
14256;SDS011;7212;53.254;6.456;2022-09-27T06:05:19;2.47;;;0.90;;
14256;SDS011;7212;53.254;6.456;2022-09-27T06:07:44;1.05;;;0.77;;
14256;SDS011;7212;53.254;6.456;2022-09-27T06:10:12;2.38;;;0.88;;
14256;SDS011;7212;53.254;6.456;2022-09-27T06:12:38;1.17;;;0.88;;
14256;SDS011;7212;53.254;6.456;2022-09-27T06:15:03;0.80;;;0.80;;
14256;SDS011;7212;53.254;6.456;2022-09-27T06:17:30;2.00;;;0.90;;
14256;SDS011;7212;53.254;6.456;2022-09-27T06:19:58;1.75;;;0.80;;
14256;SDS011;7212;53.254;6.456;2022-09-27T06:22:25;0.75;;;0.73;;
14256;SDS011;7212;53.254;6.456;2022-09-27T06:24:50;1.27;;;0.77;;
14256;SDS011;7212;53.254;6.456;2022-09-27T06:27:22;2.05;;;0.80;;
14256;SDS011;7212;53.254;6.456;2022-09-27T06:29:48;0.90;;;0.70;;
14256;SDS011;7212;53.254;6.456;2022-09-27T06:32:13;1.10;;;0.90;;
14256;SDS011;7212;53.254;6.456;2022-09-27T06:34:39;1.02;;;0.90;;
14256;SDS011;7212;53.254;6.456;2022-09-27T06:37:14;1.55;;;0.98;;
14256;SDS011;7212;53.254;6.456;2022-09-27T06:39:40;2.40;;;0.70;;
14256;SDS011;7212;53.254;6.456;2022-09-27T06:42:06;3.08;;;0.98;;
14256;SDS011;7212;53.254;6.456;2022-09-27T06:44:32;0.90;;;0.80;;
14256;SDS011;7212;53.254;6.456;2022-09-27T06:46:58;0.85;;;0.85;;
14256;SDS011;7212;53.254;6.456;2022-09-27T06:49:26;1.13;;;0.80;;
14256;SDS011;7212;53.254;6.456;2022-09-27T06:51:53;2.65;;;0.82;;
14256;SDS011;7212;53.254;6.456;2022-09-27T06:54:19;1.25;;;0.80;;
14256;SDS011;7212;53.254;6.456;2022-09-27T06:56:48;2.35;;;0.93;;
14256;SDS011;7212;53.254;6.456;2022-09-27T06:59:13;1.98;;;0.93;;
14256;SDS011;7212;53.254;6.456;2022-09-27T07:01:57;1.45;;;0.80;;
14256;SDS011;7212;53.254;6.456;2022-09-27T07:04:24;1.20;;;0.90;;
14256;SDS011;7212;53.254;6.456;2022-09-27T07:06:53;1.27;;;0.82;;
14256;SDS011;7212;53.254;6.456;2022-09-27T07:09:19;1.80;;;0.95;;
14256;SDS011;7212;53.254;6.456;2022-09-27T07:11:47;2.05;;;0.93;;
14256;SDS011;7212;53.254;6.456;2022-09-27T07:14:13;2.25;;;0.88;;
14256;SDS011;7212;53.254;6.456;2022-09-27T07:16:39;1.05;;;0.80;;
14256;SDS011;7212;53.254;6.456;2022-09-27T07:19:04;2.90;;;1.00;;
14256;SDS011;7212;53.254;6.456;2022-09-27T07:21:31;1.98;;;0.82;;
14256;SDS011;7212;53.254;6.456;2022-09-27T07:23:57;1.08;;;0.90;;
14256;SDS011;7212;53.254;6.456;2022-09-27T07:26:23;2.47;;;1.00;;
14256;SDS011;7212;53.254;6.456;2022-09-27T07:28:49;2.28;;;1.13;;
14256;SDS011;7212;53.254;6.456;2022-09-27T07:31:17;1.05;;;0.90;;
14256;SDS011;7212;53.254;6.456;2022-09-27T07:33:47;2.78;;;1.25;;
14256;SDS011;7212;53.254;6.456;2022-09-27T07:36:12;1.17;;;0.90;;
14256;SDS011;7212;53.254;6.456;2022-09-27T07:38:38;3.05;;;1.08;;
14256;SDS011;7212;53.254;6.456;2022-09-27T07:41:08;1.75;;;0.88;;
14256;SDS011;7212;53.254;6.456;2022-09-27T07:43:40;2.65;;;1.00;;
14256;SDS011;7212;53.254;6.456;2022-09-27T07:46:08;2.15;;;0.93;;
14256;SDS011;7212;53.254;6.456;2022-09-27T07:48:35;2.05;;;1.08;;
14256;SDS011;7212;53.254;6.456;2022-09-27T07:51:01;0.85;;;0.70;;
14256;SDS011;7212;53.254;6.456;2022-09-27T07:53:31;1.20;;;0.85;;
14256;SDS011;7212;53.254;6.456;2022-09-27T07:55:57;1.13;;;0.70;;
14256;SDS011;7212;53.254;6.456;2022-09-27T07:58:23;0.77;;;0.65;;
14256;SDS011;7212;53.254;6.456;2022-09-27T08:00:49;2.03;;;0.77;;
14256;SDS011;7212;53.254;6.456;2022-09-27T08:03:15;0.70;;;0.70;;
14256;SDS011;7212;53.254;6.456;2022-09-27T08:05:42;2.30;;;0.85;;
14256;SDS011;7212;53.254;6.456;2022-09-27T08:08:11;1.17;;;0.80;;
14256;SDS011;7212;53.254;6.456;2022-09-27T08:10:38;0.70;;;0.70;;
14256;SDS011;7212;53.254;6.456;2022-09-27T08:13:08;0.80;;;0.80;;
14256;SDS011;7212;53.254;6.456;2022-09-27T08:15:34;0.80;;;0.80;;
14256;SDS011;7212;53.254;6.456;2022-09-27T08:18:02;1.40;;;0.90;;
14256;SDS011;7212;53.254;6.456;2022-09-27T08:20:28;1.40;;;0.80;;
14256;SDS011;7212;53.254;6.456;2022-09-27T08:22:53;1.15;;;0.80;;
14256;SDS011;7212;53.254;6.456;2022-09-27T08:25:19;1.05;;;0.80;;
14256;SDS011;7212;53.254;6.456;2022-09-27T08:27:54;1.77;;;0.88;;
14256;SDS011;7212;53.254;6.456;2022-09-27T08:30:24;1.02;;;0.70;;
14256;SDS011;7212;53.254;6.456;2022-09-27T08:32:54;1.45;;;0.90;;
14256;SDS011;7212;53.254;6.456;2022-09-27T08:35:20;1.38;;;0.77;;
14256;SDS011;7212;53.254;6.456;2022-09-27T08:37:56;1.77;;;0.88;;
14256;SDS011;7212;53.254;6.456;2022-09-27T08:40:24;3.75;;;0.85;;
14256;SDS011;7212;53.254;6.456;2022-09-27T08:48:48;0.77;;;0.70;;
14256;SDS011;7212;53.254;6.456;2022-09-27T08:51:17;2.25;;;0.80;;
14256;SDS011;7212;53.254;6.456;2022-09-27T08:53:50;0.68;;;0.68;;
14256;SDS011;7212;53.254;6.456;2022-09-27T08:56:20;0.95;;;0.85;;
14256;SDS011;7212;53.254;6.456;2022-09-27T08:58:52;0.90;;;0.80;;
14256;SDS011;7212;53.254;6.456;2022-09-27T09:01:45;1.40;;;0.80;;
14256;SDS011;7212;53.254;6.456;2022-09-27T09:09:54;1.50;;;0.90;;
14256;SDS011;7212;53.254;6.456;2022-09-27T09:13:05;1.15;;;0.85;;
14256;SDS011;7212;53.254;6.456;2022-09-27T09:18:33;1.25;;;0.80;;
14256;SDS011;7212;53.254;6.456;2022-09-27T09:21:13;1.17;;;0.80;;
14256;SDS011;7212;53.254;6.456;2022-09-27T09:26:53;0.93;;;0.90;;
14256;SDS011;7212;53.254;6.456;2022-09-27T09:35:39;1.02;;;0.65;;
14256;SDS011;7212;53.254;6.456;2022-09-27T09:38:17;1.33;;;0.80;;
14256;SDS011;7212;53.254;6.456;2022-09-27T09:41:30;0.70;;;0.70;;
14256;SDS011;7212;53.254;6.456;2022-09-27T09:44:30;1.15;;;0.70;;
14256;SDS011;7212;53.254;6.456;2022-09-27T09:46:56;0.73;;;0.65;;
14256;SDS011;7212;53.254;6.456;2022-09-27T09:52:12;0.77;;;0.70;;
14256;SDS011;7212;53.254;6.456;2022-09-27T09:54:46;1.25;;;0.73;;
14256;SDS011;7212;53.254;6.456;2022-09-27T09:57:19;1.77;;;0.80;;
14256;SDS011;7212;53.254;6.456;2022-09-27T10:00:12;1.73;;;0.60;;
14256;SDS011;7212;53.254;6.456;2022-09-27T10:02:41;1.27;;;0.70;;
14256;SDS011;7212;53.254;6.456;2022-09-27T10:05:09;1.33;;;0.75;;
14256;SDS011;7212;53.254;6.456;2022-09-27T10:07:40;2.65;;;0.82;;
14256;SDS011;7212;53.254;6.456;2022-09-27T10:10:07;1.95;;;0.90;;
14256;SDS011;7212;53.254;6.456;2022-09-27T10:12:36;0.90;;;0.70;;
14256;SDS011;7212;53.254;6.456;2022-09-27T10:15:02;1.02;;;0.80;;
14256;SDS011;7212;53.254;6.456;2022-09-27T10:17:48;0.70;;;0.70;;
14256;SDS011;7212;53.254;6.456;2022-09-27T10:20:51;0.95;;;0.65;;
14256;SDS011;7212;53.254;6.456;2022-09-27T10:23:18;1.80;;;0.85;;
14256;SDS011;7212;53.254;6.456;2022-09-27T10:26:03;0.80;;;0.70;;
14256;SDS011;7212;53.254;6.456;2022-09-27T10:28:33;1.15;;;0.82;;
14256;SDS011;7212;53.254;6.456;2022-09-27T10:31:06;0.80;;;0.60;;
14256;SDS011;7212;53.254;6.456;2022-09-27T10:33:59;2.00;;;0.95;;
14256;SDS011;7212;53.254;6.456;2022-09-27T10:36:33;0.80;;;0.60;;
14256;SDS011;7212;53.254;6.456;2022-09-27T10:39:01;1.27;;;0.80;;
14256;SDS011;7212;53.254;6.456;2022-09-27T10:41:33;1.88;;;0.80;;
14256;SDS011;7212;53.254;6.456;2022-09-27T10:46:45;0.77;;;0.68;;
14256;SDS011;7212;53.254;6.456;2022-09-27T10:49:35;0.50;;;0.50;;
14256;SDS011;7212;53.254;6.456;2022-09-27T10:52:04;0.77;;;0.70;;
14256;SDS011;7212;53.254;6.456;2022-09-27T10:54:36;0.75;;;0.50;;
14256;SDS011;7212;53.254;6.456;2022-09-27T10:59:39;0.50;;;0.50;;
14256;SDS011;7212;53.254;6.456;2022-09-27T11:02:23;1.05;;;0.50;;
14256;SDS011;7212;53.254;6.456;2022-09-27T11:07:48;1.00;;;0.60;;
14256;SDS011;7212;53.254;6.456;2022-09-27T11:13:41;0.60;;;0.60;;
14256;SDS011;7212;53.254;6.456;2022-09-27T11:21:43;0.60;;;0.60;;
14256;SDS011;7212;53.254;6.456;2022-09-27T11:26:45;0.50;;;0.50;;
14256;SDS011;7212;53.254;6.456;2022-09-27T11:29:24;0.50;;;0.50;;
14256;SDS011;7212;53.254;6.456;2022-09-27T11:32:11;0.60;;;0.60;;
14256;SDS011;7212;53.254;6.456;2022-09-27T11:37:58;0.95;;;0.60;;
14256;SDS011;7212;53.254;6.456;2022-09-27T11:43:12;0.60;;;0.60;;
14256;SDS011;7212;53.254;6.456;2022-09-27T11:46:29;1.10;;;0.70;;
14256;SDS011;7212;53.254;6.456;2022-09-27T11:51:31;0.52;;;0.50;;
14256;SDS011;7212;53.254;6.456;2022-09-27T11:57:49;0.68;;;0.50;;
14256;SDS011;7212;53.254;6.456;2022-09-27T12:00:32;0.73;;;0.60;;
14256;SDS011;7212;53.254;6.456;2022-09-27T12:11:25;0.95;;;0.60;;
14256;SDS011;7212;53.254;6.456;2022-09-27T12:14:10;0.75;;;0.68;;
14256;SDS011;7212;53.254;6.456;2022-09-27T12:16:54;0.60;;;0.60;;
14256;SDS011;7212;53.254;6.456;2022-09-27T12:19:25;0.57;;;0.55;;
14256;SDS011;7212;53.254;6.456;2022-09-27T12:21:55;0.50;;;0.50;;
14256;SDS011;7212;53.254;6.456;2022-09-27T12:24:23;1.15;;;0.70;;
14256;SDS011;7212;53.254;6.456;2022-09-27T12:26:53;1.48;;;0.60;;
14256;SDS011;7212;53.254;6.456;2022-09-27T12:31:56;1.00;;;0.70;;
14256;SDS011;7212;53.254;6.456;2022-09-27T12:34:36;2.25;;;0.70;;
14256;SDS011;7212;53.254;6.456;2022-09-27T12:37:30;1.00;;;0.68;;
14256;SDS011;7212;53.254;6.456;2022-09-27T12:40:02;0.80;;;0.63;;
14256;SDS011;7212;53.254;6.456;2022-09-27T12:45:21;1.17;;;0.80;;
14256;SDS011;7212;53.254;6.456;2022-09-27T12:51:07;2.47;;;0.85;;
14256;SDS011;7212;53.254;6.456;2022-09-27T12:53:46;1.13;;;0.60;;
14256;SDS011;7212;53.254;6.456;2022-09-27T13:12:33;0.57;;;0.57;;
14256;SDS011;7212;53.254;6.456;2022-09-27T13:15:19;1.10;;;0.60;;
14256;SDS011;7212;53.254;6.456;2022-09-27T13:17:53;1.60;;;0.50;;
14256;SDS011;7212;53.254;6.456;2022-09-27T13:22:55;0.95;;;0.60;;
14256;SDS011;7212;53.254;6.456;2022-09-27T13:30:54;0.82;;;0.50;;
14256;SDS011;7212;53.254;6.456;2022-09-27T13:33:27;0.93;;;0.60;;
14256;SDS011;7212;53.254;6.456;2022-09-27T13:38:59;0.45;;;0.40;;
14256;SDS011;7212;53.254;6.456;2022-09-27T13:46:46;1.05;;;0.60;;
14256;SDS011;7212;53.254;6.456;2022-09-27T13:49:35;0.70;;;0.70;;
14256;SDS011;7212;53.254;6.456;2022-09-27T13:52:18;0.80;;;0.60;;
14256;SDS011;7212;53.254;6.456;2022-09-27T13:54:56;1.85;;;0.60;;
14256;SDS011;7212;53.254;6.456;2022-09-27T14:00:20;0.73;;;0.57;;
14256;SDS011;7212;53.254;6.456;2022-09-27T14:02:59;0.82;;;0.60;;
14256;SDS011;7212;53.254;6.456;2022-09-27T14:05:53;0.60;;;0.60;;
14256;SDS011;7212;53.254;6.456;2022-09-27T14:08:29;1.08;;;0.77;;
14256;SDS011;7212;53.254;6.456;2022-09-27T14:10:56;2.83;;;0.88;;
14256;SDS011;7212;53.254;6.456;2022-09-27T14:13:23;0.60;;;0.60;;
14256;SDS011;7212;53.254;6.456;2022-09-27T14:15:54;0.85;;;0.50;;
14256;SDS011;7212;53.254;6.456;2022-09-27T14:18:22;0.77;;;0.60;;
14256;SDS011;7212;53.254;6.456;2022-09-27T14:20:49;0.50;;;0.50;;
14256;SDS011;7212;53.254;6.456;2022-09-27T14:23:23;0.60;;;0.60;;
14256;SDS011;7212;53.254;6.456;2022-09-27T14:25:51;0.77;;;0.77;;
14256;SDS011;7212;53.254;6.456;2022-09-27T14:28:22;0.73;;;0.70;;
14256;SDS011;7212;53.254;6.456;2022-09-27T14:33:38;1.20;;;0.70;;
14256;SDS011;7212;53.254;6.456;2022-09-27T14:36:07;2.08;;;0.80;;
14256;SDS011;7212;53.254;6.456;2022-09-27T14:41:47;3.13;;;0.90;;
14256;SDS011;7212;53.254;6.456;2022-09-27T14:44:14;1.52;;;0.80;;
14256;SDS011;7212;53.254;6.456;2022-09-27T14:46:42;0.82;;;0.60;;
14256;SDS011;7212;53.254;6.456;2022-09-27T14:49:10;1.40;;;0.70;;
14256;SDS011;7212;53.254;6.456;2022-09-27T14:51:52;1.08;;;0.63;;
14256;SDS011;7212;53.254;6.456;2022-09-27T14:54:26;0.73;;;0.73;;
14256;SDS011;7212;53.254;6.456;2022-09-27T14:56:54;0.60;;;0.60;;
14256;SDS011;7212;53.254;6.456;2022-09-27T14:59:23;1.35;;;0.60;;
14256;SDS011;7212;53.254;6.456;2022-09-27T15:01:58;2.05;;;0.75;;
14256;SDS011;7212;53.254;6.456;2022-09-27T15:04:27;1.40;;;0.60;;
14256;SDS011;7212;53.254;6.456;2022-09-27T15:06:56;0.63;;;0.50;;
14256;SDS011;7212;53.254;6.456;2022-09-27T15:09:24;0.73;;;0.65;;
14256;SDS011;7212;53.254;6.456;2022-09-27T15:11:52;1.00;;;0.60;;
14256;SDS011;7212;53.254;6.456;2022-09-27T15:14:22;0.82;;;0.70;;
14256;SDS011;7212;53.254;6.456;2022-09-27T15:16:50;1.65;;;0.85;;
14256;SDS011;7212;53.254;6.456;2022-09-27T15:19:23;1.50;;;0.70;;
14256;SDS011;7212;53.254;6.456;2022-09-27T15:21:51;1.77;;;0.65;;
14256;SDS011;7212;53.254;6.456;2022-09-27T15:27:21;1.88;;;0.80;;
14256;SDS011;7212;53.254;6.456;2022-09-27T15:29:55;0.90;;;0.80;;
14256;SDS011;7212;53.254;6.456;2022-09-27T15:32:22;2.67;;;1.05;;
14256;SDS011;7212;53.254;6.456;2022-09-27T15:34:50;1.75;;;0.85;;
14256;SDS011;7212;53.254;6.456;2022-09-27T15:37:33;1.85;;;0.80;;
14256;SDS011;7212;53.254;6.456;2022-09-27T15:42:54;1.88;;;1.15;;
14256;SDS011;7212;53.254;6.456;2022-09-27T15:45:34;2.85;;;1.48;;
14256;SDS011;7212;53.254;6.456;2022-09-27T15:48:04;3.55;;;1.50;;
14256;SDS011;7212;53.254;6.456;2022-09-27T15:50:37;2.08;;;1.13;;
14256;SDS011;7212;53.254;6.456;2022-09-27T15:53:06;3.55;;;1.35;;
14256;SDS011;7212;53.254;6.456;2022-09-27T15:55:34;1.40;;;0.93;;
14256;SDS011;7212;53.254;6.456;2022-09-27T15:58:05;2.33;;;1.10;;
14256;SDS011;7212;53.254;6.456;2022-09-27T16:00:35;3.78;;;1.52;;
14256;SDS011;7212;53.254;6.456;2022-09-27T16:03:01;2.75;;;1.40;;
14256;SDS011;7212;53.254;6.456;2022-09-27T16:05:27;2.72;;;1.10;;
14256;SDS011;7212;53.254;6.456;2022-09-27T16:07:54;3.35;;;1.35;;
14256;SDS011;7212;53.254;6.456;2022-09-27T16:10:25;1.52;;;1.10;;
14256;SDS011;7212;53.254;6.456;2022-09-27T16:12:59;2.10;;;1.10;;
14256;SDS011;7212;53.254;6.456;2022-09-27T16:15:25;1.35;;;0.80;;
14256;SDS011;7212;53.254;6.456;2022-09-27T16:17:51;1.10;;;0.90;;
14256;SDS011;7212;53.254;6.456;2022-09-27T16:20:18;2.67;;;1.30;;
14256;SDS011;7212;53.254;6.456;2022-09-27T16:22:49;1.30;;;0.85;;
14256;SDS011;7212;53.254;6.456;2022-09-27T16:25:16;1.10;;;0.90;;
14256;SDS011;7212;53.254;6.456;2022-09-27T16:27:42;3.00;;;1.00;;
14256;SDS011;7212;53.254;6.456;2022-09-27T16:30:07;4.53;;;1.77;;
14256;SDS011;7212;53.254;6.456;2022-09-27T16:32:33;3.40;;;1.50;;
14256;SDS011;7212;53.254;6.456;2022-09-27T16:35:05;2.30;;;1.30;;
14256;SDS011;7212;53.254;6.456;2022-09-27T16:37:32;3.03;;;1.60;;
14256;SDS011;7212;53.254;6.456;2022-09-27T16:39:58;13.75;;;2.60;;
14256;SDS011;7212;53.254;6.456;2022-09-27T16:42:23;11.50;;;3.85;;
14256;SDS011;7212;53.254;6.456;2022-09-27T16:44:51;9.32;;;2.78;;
14256;SDS011;7212;53.254;6.456;2022-09-27T16:47:17;7.30;;;2.08;;
14256;SDS011;7212;53.254;6.456;2022-09-27T16:49:43;6.95;;;2.33;;
14256;SDS011;7212;53.254;6.456;2022-09-27T16:52:28;5.43;;;1.80;;
14256;SDS011;7212;53.254;6.456;2022-09-27T16:54:56;6.30;;;2.10;;
14256;SDS011;7212;53.254;6.456;2022-09-27T16:57:22;4.57;;;2.33;;
14256;SDS011;7212;53.254;6.456;2022-09-27T16:59:47;3.55;;;1.60;;
14256;SDS011;7212;53.254;6.456;2022-09-27T17:02:13;6.07;;;2.50;;
14256;SDS011;7212;53.254;6.456;2022-09-27T17:04:38;5.15;;;2.00;;
14256;SDS011;7212;53.254;6.456;2022-09-27T17:07:05;11.70;;;4.43;;
14256;SDS011;7212;53.254;6.456;2022-09-27T17:09:30;5.32;;;2.20;;
14256;SDS011;7212;53.254;6.456;2022-09-27T17:11:56;4.03;;;2.15;;
14256;SDS011;7212;53.254;6.456;2022-09-27T17:14:49;3.72;;;1.83;;
14256;SDS011;7212;53.254;6.456;2022-09-27T17:17:15;4.25;;;2.22;;
14256;SDS011;7212;53.254;6.456;2022-09-27T17:19:47;5.10;;;2.13;;
14256;SDS011;7212;53.254;6.456;2022-09-27T17:22:12;3.75;;;2.00;;
14256;SDS011;7212;53.254;6.456;2022-09-27T17:24:38;3.90;;;1.77;;
14256;SDS011;7212;53.254;6.456;2022-09-27T17:27:04;4.13;;;1.65;;
14256;SDS011;7212;53.254;6.456;2022-09-27T17:29:29;4.78;;;1.85;;
14256;SDS011;7212;53.254;6.456;2022-09-27T17:31:55;2.97;;;1.75;;
14256;SDS011;7212;53.254;6.456;2022-09-27T17:34:21;2.75;;;1.77;;
14256;SDS011;7212;53.254;6.456;2022-09-27T17:36:47;3.30;;;1.90;;
14256;SDS011;7212;53.254;6.456;2022-09-27T17:39:16;2.55;;;1.88;;
14256;SDS011;7212;53.254;6.456;2022-09-27T17:41:45;2.28;;;1.77;;
14256;SDS011;7212;53.254;6.456;2022-09-27T17:44:13;2.88;;;1.92;;
14256;SDS011;7212;53.254;6.456;2022-09-27T17:46:39;1.98;;;1.73;;
14256;SDS011;7212;53.254;6.456;2022-09-27T17:49:08;2.03;;;1.45;;
14256;SDS011;7212;53.254;6.456;2022-09-27T17:51:54;2.00;;;1.67;;
14256;SDS011;7212;53.254;6.456;2022-09-27T17:54:21;2.50;;;1.70;;
14256;SDS011;7212;53.254;6.456;2022-09-27T17:56:48;1.95;;;1.60;;
14256;SDS011;7212;53.254;6.456;2022-09-27T17:59:14;1.70;;;1.60;;